Time;durP1;ratioP1;P1;durP2;ratioP2;P2;SDS_P1;SDS_P2;PMS_P1;PMS_P2;Temp;Humidity;BMP_temperature;BMP_pressure;BME280_temperature;BME280_humidity;BME280_pressure;Samples;Min_cycle;Max_cycle;Signal;HPM_P1;HPM_P2
2022/12/13 00:01:28;;;;;;;;;45.25;41.50;;;;;0.39;58.08;100208.94;5060170;28;46259;-45
2022/12/13 00:03:58;;;;;;;;;59.75;44.75;;;;;0.38;58.18;100202.00;5058901;27;45423;-44
2022/12/13 00:06:24;;;;;;;;;56.00;43.00;;;;;0.36;58.39;100195.97;5059977;28;45393;-44
2022/12/13 00:08:49;;;;;;;;;43.50;34.25;;;;;0.36;58.51;100193.38;5060105;28;45321;-45
2022/12/13 00:11:15;;;;;;;;;41.50;38.75;;;;;0.31;58.51;100188.09;5059921;28;46199;-48
2022/12/13 00:13:42;;;;;;;;;50.50;38.00;;;;;0.29;58.26;100188.09;5058735;28;45282;-44
2022/12/13 00:16:16;;;;;;;;;36.75;36.50;;;;;0.31;58.41;100189.00;5060240;28;45279;-46
2022/12/13 00:18:42;;;;;;;;;42.50;37.75;;;;;0.30;58.39;100187.25;5059889;28;45395;-45
2022/12/13 00:21:12;;;;;;;;;52.00;42.00;;;;;0.28;58.11;100183.75;5059655;28;46118;-45
2022/12/13 00:23:37;;;;;;;;;44.50;35.00;;;;;0.27;58.23;100182.00;5060014;28;45220;-47
2022/12/13 00:26:09;;;;;;;;;42.00;40.00;;;;;0.26;58.14;100181.97;5058501;28;45430;-44
2022/12/13 00:28:35;;;;;;;;;46.75;39.25;;;;;0.25;58.31;100169.91;5060067;28;45488;-46
2022/12/13 00:31:02;;;;;;;;;58.50;39.50;;;;;0.24;58.17;100171.63;5059693;28;45285;-45
2022/12/13 00:33:28;;;;;;;;;41.75;40.00;;;;;0.17;58.07;100162.00;5059874;28;45323;-47
2022/12/13 00:35:54;;;;;;;;;55.75;42.50;;;;;0.19;58.06;100164.59;5059919;28;45230;-45
2022/12/13 00:38:20;;;;;;;;;50.00;42.25;;;;;0.18;58.34;100166.34;5059687;28;45524;-45
2022/12/13 00:40:45;;;;;;;;;46.25;41.50;;;;;0.16;58.13;100157.66;5059654;28;46030;-45
2022/12/13 00:43:11;;;;;;;;;61.00;40.50;;;;;0.16;58.32;100165.44;5059568;28;45374;-47
2022/12/13 00:45:37;;;;;;;;;35.50;29.75;;;;;0.16;57.96;100162.84;5055731;28;45342;-45
2022/12/13 00:48:03;;;;;;;;;41.25;37.25;;;;;0.10;58.25;100153.28;5056603;28;45321;-45
2022/12/13 00:50:29;;;;;;;;;38.75;36.50;;;;;0.13;58.42;100166.25;5050721;28;46437;-44
2022/12/13 00:52:55;;;;;;;;;32.50;29.25;;;;;0.13;58.24;100160.22;5059184;28;45158;-46
2022/12/13 00:55:20;;;;;;;;;46.50;41.00;;;;;0.11;58.71;100159.31;5075384;28;45193;-46
2022/12/13 00:57:46;;;;;;;;;52.25;43.75;;;;;0.09;58.38;100155.81;5059515;28;45589;-45
2022/12/13 01:00:11;;;;;;;;;45.25;33.50;;;;;0.09;58.09;100158.38;5059511;28;45367;-45
2022/12/13 01:02:37;;;;;;;;;43.00;40.75;;;;;0.08;58.36;100159.25;5059446;28;45227;-44
2022/12/13 01:05:03;;;;;;;;;39.25;32.75;;;;;0.04;58.56;100152.25;5059500;28;45239;-45
2022/12/13 01:07:28;;;;;;;;;46.75;40.50;;;;;0.05;58.49;100156.59;5059393;28;45243;-45
2022/12/13 01:09:56;;;;;;;;;46.75;37.75;;;;;-0.02;58.57;100145.28;5059401;28;45331;-45
2022/12/13 01:12:22;;;;;;;;;42.00;33.00;;;;;0.03;58.40;100160.88;5059306;27;45416;-44
2022/12/13 01:14:47;;;;;;;;;37.50;32.50;;;;;0.01;58.38;100155.66;5059521;28;45482;-44
2022/12/13 01:17:12;;;;;;;;;44.50;38.00;;;;;0.00;58.21;100159.13;5059475;28;45605;-44
2022/12/13 01:19:38;;;;;;;;;42.00;36.25;;;;;-0.01;58.31;100160.81;5059958;27;46273;-45
2022/12/13 01:22:06;;;;;;;;;42.25;39.25;;;;;-0.02;58.51;100159.06;5059197;28;45408;-45
2022/12/13 01:24:31;;;;;;;;;39.00;34.50;;;;;-0.03;58.20;100162.47;5059335;28;45308;-44
2022/12/13 01:26:57;;;;;;;;;39.75;35.50;;;;;-0.04;58.37;100158.19;5074829;28;45307;-46
2022/12/13 01:29:24;;;;;;;;;46.25;39.50;;;;;-0.04;58.46;100157.28;5059099;28;45537;-48
2022/12/13 01:31:49;;;;;;;;;48.25;36.50;;;;;-0.05;58.64;100152.97;5059270;28;45561;-45
2022/12/13 01:34:18;;;;;;;;;35.50;33.00;;;;;-0.07;58.18;100152.94;5059248;28;45342;-44
2022/12/13 01:36:45;;;;;;;;;43.00;35.50;;;;;-0.07;58.21;100144.31;5060269;28;45335;-47
2022/12/13 01:39:13;;;;;;;;;31.00;27.50;;;;;-0.07;58.57;100141.75;5062424;28;45486;-45
2022/12/13 01:41:39;;;;;;;;;36.75;29.75;;;;;-0.08;58.05;100138.28;5062469;28;45255;-48
2022/12/13 01:44:26;;;;;;;;;39.50;34.00;;;;;-0.09;58.41;100140.81;5062456;28;45358;-45
2022/12/13 01:46:51;;;;;;;;;29.50;27.00;;;;;-0.09;58.33;100143.41;5062346;28;45455;-46
2022/12/13 01:49:17;;;;;;;;;37.00;31.50;;;;;-0.10;58.69;100145.13;5054491;28;46353;-46
2022/12/13 01:51:50;;;;;;;;;41.50;34.50;;;;;-0.12;58.40;100139.06;5062031;28;45374;-47
2022/12/13 01:54:21;;;;;;;;;32.25;27.75;;;;;-0.13;58.29;100136.44;5062455;27;45384;-45
2022/12/13 01:56:53;;;;;;;;;48.25;33.75;;;;;-0.15;58.23;100140.69;5062424;28;45362;-47
2022/12/13 01:59:20;;;;;;;;;36.00;29.50;;;;;-0.13;58.39;100139.91;5062225;28;45408;-48
2022/12/13 02:01:47;;;;;;;;;32.50;28.75;;;;;-0.18;58.55;100133.78;5060922;28;45173;-45
2022/12/13 02:04:15;;;;;;;;;36.25;29.25;;;;;-0.15;58.32;100149.34;5062402;28;45177;-45
2022/12/13 02:06:44;;;;;;;;;32.00;24.00;;;;;-0.15;58.42;100139.00;5061752;28;45449;-44
2022/12/13 02:09:11;;;;;;;;;34.75;30.50;;;;;-0.15;58.48;100140.69;5061965;28;45232;-46
2022/12/13 02:11:39;;;;;;;;;41.75;30.25;;;;;-0.16;58.22;100145.00;5061836;28;45232;-44
2022/12/13 02:14:05;;;;;;;;;31.50;27.25;;;;;-0.15;58.20;100151.94;5062429;28;45293;-49
2022/12/13 02:16:52;;;;;;;;;33.00;28.00;;;;;-0.15;58.22;100156.19;5062021;28;45327;-47
2022/12/13 02:19:39;;;;;;;;;35.50;31.50;;;;;-0.17;58.21;100163.94;5061911;28;46243;-47
2022/12/13 02:22:10;;;;;;;;;30.25;27.50;;;;;-0.16;58.36;100160.50;5061658;28;45331;-47
2022/12/13 02:25:07;;;;;;;;;37.75;27.50;;;;;-0.16;58.41;100160.50;5061927;28;45275;-46
2022/12/13 02:27:38;;;;;;;;;33.50;29.50;;;;;-0.16;58.30;100155.34;5077301;28;45372;-45
2022/12/13 02:30:32;;;;;;;;;35.50;30.50;;;;;-0.17;58.18;100156.19;5061650;28;46193;-46
2022/12/13 02:33:10;;;;;;;;;35.00;25.75;;;;;-0.18;58.33;100146.69;5061752;28;45252;-46
2022/12/13 02:35:42;;;;;;;;;35.25;27.50;;;;;-0.19;58.46;100148.41;5061922;28;45291;-44
2022/12/13 02:38:12;;;;;;;;;34.00;30.00;;;;;-0.22;58.52;100143.16;5062001;27;45261;-44
2022/12/13 02:41:08;;;;;;;;;34.75;29.00;;;;;-0.19;58.34;100148.41;5061765;28;45317;-45
2022/12/13 02:43:56;;;;;;;;;36.50;26.00;;;;;-0.21;58.26;100142.31;5061537;28;45359;-46
2022/12/13 02:46:25;;;;;;;;;35.25;28.00;;;;;-0.21;58.35;100141.47;5041971;28;45316;-46
2022/12/13 02:48:53;;;;;;;;;34.00;29.50;;;;;-0.21;58.72;100144.06;5059133;28;45660;-47
2022/12/13 02:51:21;;;;;;;;;38.75;34.00;;;;;-0.20;58.04;100138.06;5060990;28;45467;-46
2022/12/13 02:53:46;;;;;;;;;36.75;26.75;;;;;-0.21;58.29;100136.31;5061472;28;45242;-45
2022/12/13 02:56:12;;;;;;;;;35.00;28.25;;;;;-0.22;58.55;100132.84;5061602;28;46109;-45
2022/12/13 02:58:47;;;;;;;;;33.50;26.00;;;;;-0.23;58.43;100125.91;5061369;28;45274;-47
2022/12/13 03:01:32;;;;;;;;;32.00;25.00;;;;;-0.23;57.97;100123.34;5076971;28;46252;-47
2022/12/13 03:04:06;;;;;;;;;33.50;30.00;;;;;-0.22;58.32;100126.81;5061195;28;45470;-45
2022/12/13 03:07:02;;;;;;;;;34.75;25.75;;;;;-0.22;58.39;100126.81;5066039;27;45522;-44
2022/12/13 03:09:54;;;;;;;;;29.75;21.75;;;;;-0.23;58.02;100125.06;5061347;28;45183;-47
2022/12/13 03:15:58;;;;;;;;;24.25;17.75;;;;;-0.26;58.03;100112.09;5059022;28;45224;-45
2022/12/13 03:18:26;;;;;;;;;34.50;26.50;;;;;-0.21;58.01;100119.09;5061188;28;45220;-45
2022/12/13 03:20:57;;;;;;;;;36.25;32.75;;;;;-0.23;58.31;100114.72;5061072;28;45434;-47
2022/12/13 03:23:23;;;;;;;;;18.50;12.25;;;;;-0.22;58.34;100109.59;5060805;28;46295;-45
2022/12/13 03:25:53;;;;;;;;;25.00;21.00;;;;;-0.23;58.30;100105.25;5060982;28;45277;-46
2022/12/13 03:28:19;;;;;;;;;37.25;24.00;;;;;-0.23;58.49;100107.84;5060886;28;45349;-48
2022/12/13 03:30:44;;;;;;;;;29.75;28.00;;;;;-0.25;57.79;100101.78;5060852;28;45283;-44
2022/12/13 03:33:09;;;;;;;;;32.00;26.50;;;;;-0.25;58.14;100088.88;5060785;28;45351;-45
2022/12/13 03:35:36;;;;;;;;;32.75;26.50;;;;;-0.28;58.02;100083.63;5060774;28;45323;-45
2022/12/13 03:38:02;;;;;;;;;30.50;24.25;;;;;-0.24;58.42;100092.31;5059546;28;45305;-46
2022/12/13 03:40:29;;;;;;;;;26.25;19.25;;;;;-0.27;58.10;100084.53;5061245;27;45262;-45
2022/12/13 03:42:55;;;;;;;;;30.25;24.25;;;;;-0.24;58.29;100093.22;5059189;28;45458;-49
2022/12/13 03:45:20;;;;;;;;;23.50;23.50;;;;;-0.26;58.19;100092.31;5060596;28;45348;-45
2022/12/13 03:47:45;;;;;;;;;24.25;23.00;;;;;-0.25;58.11;100095.75;5060546;28;45561;-44
2022/12/13 03:50:11;;;;;;;;;26.25;24.25;;;;;-0.26;58.07;100099.19;5068687;28;45420;-45
2022/12/13 03:52:36;;;;;;;;;31.75;27.25;;;;;-0.26;57.76;100100.03;5060026;28;45319;-48
2022/12/13 03:55:01;;;;;;;;;23.75;21.00;;;;;-0.26;57.96;100104.34;5060473;28;45277;-46
2022/12/13 03:57:28;;;;;;;;;36.25;28.75;;;;;-0.25;57.82;100114.72;5060325;28;45634;-45
2022/12/13 03:59:53;;;;;;;;;25.75;23.00;;;;;-0.29;57.74;100117.19;5060115;28;45330;-44
2022/12/13 04:02:19;;;;;;;;;34.25;26.25;;;;;-0.29;58.15;100110.34;5058781;28;46002;-45
2022/12/13 04:04:44;;;;;;;;;27.75;20.50;;;;;-0.30;58.19;100100.84;5060466;28;45228;-45
2022/12/13 04:07:09;;;;;;;;;30.75;26.25;;;;;-0.28;57.93;100109.47;5075716;28;45400;-44
2022/12/13 04:09:34;;;;;;;;;23.25;18.50;;;;;-0.25;57.79;100114.72;5060216;28;45240;-47
2022/12/13 04:14:44;;;;;;;;;27.00;24.50;;;;;-0.28;58.09;100104.31;5060305;28;45269;-46
2022/12/13 04:17:09;;;;;;;;;32.25;26.50;;;;;-0.27;57.95;100110.34;5060356;28;45477;-45
2022/12/13 04:19:34;;;;;;;;;30.25;26.50;;;;;-0.28;57.69;100106.03;5060223;28;45447;-48
2022/12/13 04:22:00;;;;;;;;;35.00;23.25;;;;;-0.28;57.87;100093.13;5059767;28;45303;-46
2022/12/13 04:24:25;;;;;;;;;29.50;25.00;;;;;-0.26;58.02;100101.78;5060140;28;45261;-46
2022/12/13 04:26:50;;;;;;;;;34.25;26.50;;;;;-0.28;57.88;100099.13;5060015;28;45223;-44
2022/12/13 04:29:16;;;;;;;;;25.25;23.00;;;;;-0.29;57.66;100091.38;5060051;28;45392;-45
2022/12/13 04:31:41;;;;;;;;;32.00;26.00;;;;;-0.28;57.69;100082.78;5059956;28;45278;-45
2022/12/13 04:34:07;;;;;;;;;25.00;21.00;;;;;-0.30;57.83;100080.19;5060002;28;45239;-44
2022/12/13 04:36:32;;;;;;;;;24.00;20.50;;;;;-0.30;58.21;100079.28;5059964;28;45263;-45
2022/12/13 04:38:57;;;;;;;;;33.25;26.00;;;;;-0.31;57.81;100082.72;5059823;28;45279;-49
2022/12/13 04:41:23;;;;;;;;;29.75;24.25;;;;;-0.31;57.99;100087.88;5059955;28;45385;-45
2022/12/13 04:43:52;;;;;;;;;29.50;25.50;;;;;-0.32;57.94;100079.25;5075478;28;45248;-46
2022/12/13 04:46:19;;;;;;;;;23.75;18.25;;;;;-0.32;57.87;100081.00;5058574;28;45406;-46
2022/12/13 04:48:45;;;;;;;;;37.25;32.00;;;;;-0.34;58.03;100083.50;5059800;28;45303;-45
2022/12/13 04:51:10;;;;;;;;;29.50;25.75;;;;;-0.35;57.97;100085.25;5059401;28;46299;-47
2022/12/13 04:53:36;;;;;;;;;28.50;26.00;;;;;-0.35;57.87;100082.66;5059721;28;45300;-47
2022/12/13 04:56:03;;;;;;;;;27.50;26.00;;;;;-0.36;57.58;100078.34;5059632;28;45314;-46
2022/12/13 04:58:29;;;;;;;;;32.25;25.75;;;;;-0.36;57.61;100083.50;5059838;28;45186;-45
2022/12/13 05:00:54;;;;;;;;;26.25;24.50;;;;;-0.37;58.13;100078.31;5059590;28;45253;-47
2022/12/13 05:03:20;;;;;;;;;33.75;29.25;;;;;-0.39;57.69;100079.97;5059506;28;45339;-45
2022/12/13 05:05:45;;;;;;;;;40.25;29.25;;;;;-0.41;57.80;100071.34;5059698;28;45329;-46
2022/12/13 05:08:11;;;;;;;;;29.75;27.50;;;;;-0.42;57.86;100069.59;5059366;28;45323;-44
2022/12/13 05:10:36;;;;;;;;;33.75;27.75;;;;;-0.41;57.74;100073.94;5059557;28;45453;-44
2022/12/13 05:13:03;;;;;;;;;32.75;27.25;;;;;-0.41;57.70;100073.94;5062667;28;45268;-43
2022/12/13 05:15:29;;;;;;;;;34.00;30.50;;;;;-0.42;57.88;100074.78;5063099;28;45314;-44
2022/12/13 05:17:58;;;;;;;;;31.75;27.75;;;;;-0.42;58.03;100077.34;5078677;28;45230;-45
2022/12/13 05:20:23;;;;;;;;;23.50;20.25;;;;;-0.44;57.82;100071.28;5063077;28;46209;-43
2022/12/13 05:22:48;;;;;;;;;39.50;31.75;;;;;-0.45;57.78;100061.78;5062624;28;45196;-44
2022/12/13 05:25:14;;;;;;;;;35.50;30.75;;;;;-0.56;57.93;100044.38;5078753;27;45276;-45
2022/12/13 05:27:39;;;;;;;;;65.25;51.00;;;;;-0.44;57.73;100066.09;5062744;28;45496;-43
2022/12/13 05:30:05;;;;;;;;;35.75;33.00;;;;;-0.44;57.98;100067.00;5062711;28;45279;-46
2022/12/13 05:32:37;;;;;;;;;38.75;31.75;;;;;-0.44;57.75;100064.41;5062821;28;45315;-45
2022/12/13 05:35:03;;;;;;;;;41.25;34.75;;;;;-0.47;57.83;100058.31;5062892;28;45287;-44
2022/12/13 05:37:28;;;;;;;;;33.00;27.50;;;;;-0.45;57.63;100064.38;5062426;28;45445;-45
2022/12/13 05:39:53;;;;;;;;;33.00;31.50;;;;;-0.46;57.76;100063.50;5062698;28;45231;-44
2022/12/13 05:42:19;;;;;;;;;39.50;33.00;;;;;-0.53;57.73;100059.94;5062552;28;45329;-46
2022/12/13 05:44:44;;;;;;;;;28.00;25.00;;;;;-0.47;57.79;100077.25;5062972;28;45328;-44
2022/12/13 05:47:09;;;;;;;;;23.50;23.50;;;;;-0.46;57.96;100079.00;5061387;28;45319;-43
2022/12/13 05:49:35;;;;;;;;;36.25;29.00;;;;;-0.46;57.84;100073.84;5054425;28;45323;-44
2022/12/13 05:52:00;;;;;;;;;36.75;28.25;;;;;-0.46;57.65;100079.00;5062264;28;45394;-44
2022/12/13 05:54:25;;;;;;;;;36.25;31.50;;;;;-0.46;57.90;100085.88;5062562;28;45249;-44
2022/12/13 05:56:51;;;;;;;;;30.50;25.50;;;;;-0.45;57.71;100087.59;5062449;28;45260;-44
2022/12/13 05:59:16;;;;;;;;;33.75;30.50;;;;;-0.54;58.34;100081.44;5062374;28;45427;-45
2022/12/13 06:01:41;;;;;;;;;34.25;30.00;;;;;-0.45;57.60;100087.59;5062320;28;45337;-43
2022/12/13 06:04:07;;;;;;;;;40.25;29.50;;;;;-0.49;57.92;100081.53;5062403;28;45353;-45
2022/12/13 06:06:32;;;;;;;;;36.50;30.00;;;;;-0.46;57.63;100091.91;5061906;28;46429;-44
2022/12/13 06:08:58;;;;;;;;;41.75;32.50;;;;;-0.48;57.41;100091.00;5061996;28;45370;-44
2022/12/13 06:11:23;;;;;;;;;33.75;27.50;;;;;-0.47;57.53;100097.91;5062025;28;45477;-45
2022/12/13 06:13:51;;;;;;;;;36.75;27.75;;;;;-0.50;57.73;100101.28;5062190;28;45335;-45
2022/12/13 06:16:16;;;;;;;;;32.50;28.25;;;;;-0.46;58.01;100107.41;5062194;28;45437;-45
2022/12/13 06:18:41;;;;;;;;;28.75;24.75;;;;;-0.46;57.58;100102.22;5061894;28;45211;-43
2022/12/13 06:21:07;;;;;;;;;34.50;28.50;;;;;-0.46;57.92;100106.53;5060464;28;45261;-44
2022/12/13 06:23:33;;;;;;;;;27.50;24.00;;;;;-0.46;57.80;100109.13;5062000;28;45182;-46
2022/12/13 06:26:02;;;;;;;;;41.50;34.75;;;;;-0.46;57.82;100119.44;5061889;28;45486;-45
2022/12/13 06:28:27;;;;;;;;;35.75;29.25;;;;;-0.45;57.65;100110.84;5061618;28;47104;-45
2022/12/13 06:30:53;;;;;;;;;30.75;26.75;;;;;-0.43;58.14;100111.75;5061919;28;45378;-45
2022/12/13 06:33:19;;;;;;;;;30.00;26.75;;;;;-0.42;57.60;100116.94;5061820;28;45445;-46
2022/12/13 06:35:45;;;;;;;;;33.50;26.00;;;;;-0.42;57.94;100122.09;5061666;28;45216;-44
2022/12/13 06:38:12;;;;;;;;;42.75;35.00;;;;;-0.41;57.74;100123.00;5061629;28;46276;-48
2022/12/13 06:40:38;;;;;;;;;29.50;26.00;;;;;-0.43;58.22;100112.59;5061861;28;45236;-45
2022/12/13 06:43:04;;;;;;;;;41.00;32.00;;;;;-0.40;57.65;100107.53;5061668;28;45182;-45
2022/12/13 06:45:30;;;;;;;;;36.75;33.75;;;;;-0.38;58.13;100107.53;5061657;28;45371;-46
2022/12/13 06:47:56;;;;;;;;;36.00;29.25;;;;;-0.37;57.90;100104.13;5060772;28;45413;-45
2022/12/13 06:50:22;;;;;;;;;44.75;33.25;;;;;-0.37;58.04;100104.13;5054786;28;45454;-46
2022/12/13 06:52:47;;;;;;;;;36.00;35.00;;;;;-0.39;57.65;100098.94;5061229;28;45375;-47
2022/12/13 06:55:13;;;;;;;;;43.75;33.25;;;;;-0.35;58.13;100092.13;5061427;28;45322;-46
2022/12/13 06:57:39;;;;;;;;;40.75;36.25;;;;;-0.34;58.07;100102.47;5061337;28;45291;-46
2022/12/13 07:00:05;;;;;;;;;41.50;34.50;;;;;-0.34;57.92;100092.16;5061391;28;45283;-46
2022/12/13 07:02:31;;;;;;;;;35.00;31.00;;;;;-0.35;58.12;100090.41;5061487;28;45493;-47
2022/12/13 07:04:56;;;;;;;;;47.00;37.75;;;;;-0.34;58.05;100088.69;5061216;28;45452;-60
2022/12/13 07:07:23;;;;;;;;;39.75;32.00;;;;;-0.34;57.75;100087.00;5051037;28;46141;-47
2022/12/13 07:09:48;;;;;;;;;38.75;35.75;;;;;-0.31;57.71;100083.59;5053805;28;45224;-47
2022/12/13 07:12:14;;;;;;;;;37.75;28.50;;;;;-0.32;57.67;100081.84;5057347;28;45394;-49
2022/12/13 07:14:39;;;;;;;;;40.50;32.50;;;;;-0.31;57.84;100082.72;5055947;28;45359;-48
2022/12/13 07:17:04;;;;;;;;;39.75;35.00;;;;;-0.31;57.72;100077.53;5060823;28;45296;-46
2022/12/13 07:19:30;;;;;;;;;33.50;29.25;;;;;-0.31;57.80;100083.59;5060981;28;45367;-52
2022/12/13 07:21:56;;;;;;;;;37.25;29.25;;;;;-0.32;57.96;100086.16;5060548;28;45488;-47
2022/12/13 07:24:21;;;;;;;;;40.00;36.00;;;;;-0.31;58.02;100093.03;5055508;28;45243;-46
2022/12/13 07:26:46;;;;;;;;;29.25;27.50;;;;;-0.32;57.92;100089.59;5060458;28;46262;-49
2022/12/13 07:29:12;;;;;;;;;42.25;41.00;;;;;-0.32;58.06;100097.34;5060786;28;45378;-44
2022/12/13 07:31:37;;;;;;;;;37.75;35.00;;;;;-0.32;57.85;100101.66;5060863;28;45465;-46
2022/12/13 07:34:03;;;;;;;;;37.50;29.75;;;;;-0.31;57.90;100112.00;5060197;28;45418;-46
2022/12/13 07:36:28;;;;;;;;;34.25;27.25;;;;;-0.30;57.96;100110.28;5067931;28;48203;-44
2022/12/13 07:38:55;;;;;;;;;43.25;32.00;;;;;-0.32;57.60;100109.41;5052984;28;45297;-46
2022/12/13 07:41:22;;;;;;;;;45.50;39.75;;;;;-0.30;57.56;100107.69;5058116;28;45486;-45
2022/12/13 07:43:48;;;;;;;;;48.50;36.50;;;;;-0.29;57.94;100106.84;5061035;28;45181;-48
2022/12/13 07:46:13;;;;;;;;;48.75;35.00;;;;;-0.28;57.93;100117.22;5060348;28;45991;-45
2022/12/13 07:48:39;;;;;;;;;37.75;32.75;;;;;-0.28;58.01;100113.78;5055223;28;45187;-46
2022/12/13 07:51:07;;;;;;;;;49.00;38.00;;;;;-0.26;57.66;100119.84;5060450;28;45351;-48
2022/12/13 07:53:34;;;;;;;;;31.50;30.75;;;;;-0.24;58.11;100120.72;5060662;28;45302;-45
2022/12/13 07:56:04;;;;;;;;;46.50;38.25;;;;;-0.22;57.90;100129.38;5060412;28;46106;-49
2022/12/13 07:58:32;;;;;;;;;37.75;35.75;;;;;-0.22;58.09;100135.41;5060521;28;45292;-46
2022/12/13 08:01:03;;;;;;;;;50.00;38.00;;;;;-0.18;57.79;100144.09;5076336;28;45354;-45
2022/12/13 08:03:28;;;;;;;;;33.50;31.00;;;;;-0.19;58.39;100137.19;5060424;28;45444;-46
2022/12/13 08:06:02;;;;;;;;;40.75;33.00;;;;;-0.16;57.93;100152.75;5060142;28;45374;-45
2022/12/13 08:08:28;;;;;;;;;44.00;37.50;;;;;-0.14;57.93;100153.66;5060108;28;45248;-46
2022/12/13 08:10:54;;;;;;;;;47.50;35.00;;;;;-0.14;57.97;100153.66;5060369;28;45306;-47
2022/12/13 08:13:19;;;;;;;;;44.50;35.25;;;;;-0.12;58.00;100151.97;5060210;28;46415;-46
2022/12/13 08:15:44;;;;;;;;;34.25;30.50;;;;;-0.11;58.01;100153.72;5060096;28;46503;-46
2022/12/13 08:18:09;;;;;;;;;35.00;29.00;;;;;-0.09;58.16;100161.50;5060197;28;45350;-45
2022/12/13 08:20:36;;;;;;;;;44.00;35.75;;;;;-0.07;57.80;100154.66;5060458;28;45381;-47
2022/12/13 08:23:02;;;;;;;;;44.75;37.25;;;;;-0.06;57.92;100159.00;5060255;27;45388;-46
2022/12/13 08:25:28;;;;;;;;;35.75;33.75;;;;;-0.05;58.00;100164.19;5060189;28;45311;-46
2022/12/13 08:27:53;;;;;;;;;43.50;38.75;;;;;-0.04;57.71;100170.19;5075459;28;45339;-49
2022/12/13 08:30:19;;;;;;;;;44.00;37.75;;;;;-0.03;57.84;100167.66;5059222;28;45340;-46
2022/12/13 08:32:44;;;;;;;;;42.25;37.50;;;;;0.01;58.14;100167.72;5059966;28;45316;-45
2022/12/13 08:35:10;;;;;;;;;35.75;28.75;;;;;0.03;57.79;100171.22;5060076;28;45316;-47
2022/12/13 08:37:35;;;;;;;;;38.00;36.75;;;;;0.04;58.32;100166.06;5059684;28;45267;-45
2022/12/13 08:40:02;;;;;;;;;49.50;39.25;;;;;0.05;57.85;100164.34;5060196;28;45368;-45
2022/12/13 08:42:28;;;;;;;;;51.75;40.75;;;;;0.10;57.94;100175.63;5059770;27;45264;-45
2022/12/13 08:44:53;;;;;;;;;46.25;40.75;;;;;0.13;57.73;100167.97;5053604;28;46269;-47
2022/12/13 08:47:21;;;;;;;;;55.75;43.25;;;;;0.17;58.13;100171.47;5062439;28;45255;-48
2022/12/13 08:49:46;;;;;;;;;57.75;42.50;;;;;0.20;57.94;100176.69;5063687;28;45341;-46
2022/12/13 08:52:11;;;;;;;;;47.25;42.75;;;;;0.25;57.93;100182.81;5063071;28;45497;-46
2022/12/13 08:54:37;;;;;;;;;46.00;43.00;;;;;0.26;58.00;100180.25;5063249;28;45438;-45
2022/12/13 08:57:02;;;;;;;;;44.00;39.25;;;;;0.31;57.76;100189.00;5063455;28;45304;-46
2022/12/13 08:59:28;;;;;;;;;39.75;39.00;;;;;0.36;57.82;100185.63;5063341;28;45334;-46
2022/12/13 09:01:53;;;;;;;;;46.00;42.50;;;;;0.41;57.87;100184.00;5063193;28;45281;-47
2022/12/13 09:04:19;;;;;;;;;53.50;41.50;;;;;0.46;57.91;100172.00;5063185;28;45224;-48
2022/12/13 09:06:44;;;;;;;;;47.50;39.25;;;;;0.50;58.04;100168.63;5062922;28;45302;-47
2022/12/13 09:09:10;;;;;;;;;48.25;41.75;;;;;0.56;57.76;100173.91;5063246;28;45267;-45
2022/12/13 09:11:38;;;;;;;;;59.75;43.75;;;;;0.59;57.67;100154.97;5063095;27;45220;-49
2022/12/13 09:14:03;;;;;;;;;47.75;43.00;;;;;0.67;58.05;100160.28;5062862;28;46141;-46
2022/12/13 09:16:29;;;;;;;;;48.75;40.50;;;;;0.73;57.72;100157.81;5078837;28;45344;-45
2022/12/13 09:18:54;;;;;;;;;42.50;37.00;;;;;0.78;57.90;100150.97;5063043;27;45343;-46
2022/12/13 09:21:20;;;;;;;;;44.00;40.00;;;;;0.83;58.36;100146.78;5062780;28;45529;-49
2022/12/13 09:23:46;;;;;;;;;46.50;41.25;;;;;0.91;57.83;100152.94;5062876;28;45262;-46
2022/12/13 09:26:13;;;;;;;;;44.75;35.50;;;;;0.99;57.77;100149.59;5063105;28;45379;-49
2022/12/13 09:28:40;;;;;;;;;57.75;45.50;;;;;1.11;58.01;100144.63;5078535;28;45332;-47
2022/12/13 09:31:07;;;;;;;;;47.75;41.75;;;;;1.22;58.11;100145.66;5062897;28;45220;-47
2022/12/13 09:33:32;;;;;;;;;49.00;43.75;;;;;1.33;57.80;100147.50;5062794;28;46055;-46
2022/12/13 09:35:58;;;;;;;;;52.50;41.00;;;;;1.44;58.00;100145.94;5062737;28;45337;-49
2022/12/13 09:38:23;;;;;;;;;48.50;43.00;;;;;1.55;58.16;100143.50;5062949;28;45218;-46
2022/12/13 09:40:53;;;;;;;;;47.75;42.25;;;;;1.62;58.41;100148.78;5062772;28;45482;-46
2022/12/13 09:43:32;;;;;;;;;42.00;40.00;;;;;1.72;57.91;100146.28;5062439;28;47075;-45
2022/12/13 09:46:03;;;;;;;;;46.25;39.25;;;;;1.76;58.13;100148.06;5062590;28;45286;-49
2022/12/13 09:48:28;;;;;;;;;47.75;42.00;;;;;1.83;57.56;100149.88;5062751;28;45291;-46
2022/12/13 09:50:54;;;;;;;;;41.25;37.75;;;;;1.86;57.76;100142.16;5062468;28;45489;-47
2022/12/13 09:53:19;;;;;;;;;53.00;41.25;;;;;1.90;57.74;100137.84;5062125;28;46019;-49
2022/12/13 09:55:48;;;;;;;;;47.50;37.25;;;;;1.94;57.50;100140.50;5062359;28;45205;-49
2022/12/13 09:58:19;;;;;;;;;42.50;39.25;;;;;1.99;57.53;100148.34;5061892;28;45326;-46
2022/12/13 10:00:47;;;;;;;;;47.00;38.50;;;;;2.03;57.90;100139.75;5062561;28;45232;-48
2022/12/13 10:03:15;;;;;;;;;39.00;34.75;;;;;2.08;57.50;100145.00;5062212;28;46320;-46
2022/12/13 10:05:44;;;;;;;;;47.25;36.25;;;;;2.11;57.93;100140.72;5061927;27;45375;-45
2022/12/13 10:08:23;;;;;;;;;40.00;34.75;;;;;2.18;57.78;100141.63;5062163;28;45241;-46
2022/12/13 10:10:51;;;;;;;;;35.75;31.75;;;;;2.22;57.79;100138.22;5061961;28;45318;-45
2022/12/13 10:13:35;;;;;;;;;43.50;39.50;;;;;2.30;57.56;100143.47;5062228;28;46389;-45
2022/12/13 10:16:08;;;;;;;;;40.50;34.00;;;;;2.38;57.54;100148.75;5062084;28;45430;-44
2022/12/13 10:18:36;;;;;;;;;43.00;37.50;;;;;2.35;57.57;100125.38;5062095;28;45252;-46
2022/12/13 10:21:07;;;;;;;;;40.00;36.25;;;;;2.52;57.25;100141.97;5061666;28;45484;-48
2022/12/13 10:23:33;;;;;;;;;52.75;39.75;;;;;2.57;57.29;100144.63;5077482;28;46089;-48
2022/12/13 10:25:58;;;;;;;;;39.00;34.25;;;;;2.67;57.30;100135.19;5062040;28;45304;-46
2022/12/13 10:28:29;;;;;;;;;54.25;38.75;;;;;2.76;57.67;100137.84;5062076;28;45263;-46
2022/12/13 10:30:56;;;;;;;;;44.75;39.00;;;;;2.84;57.50;100130.97;5062053;28;45260;-45
2022/12/13 10:33:29;;;;;;;;;43.75;36.25;;;;;2.94;57.12;100129.31;5061498;28;45309;-45
2022/12/13 10:36:12;;;;;;;;;39.50;35.50;;;;;3.06;57.18;100120.78;5061739;28;45215;-45
2022/12/13 10:38:44;;;;;;;;;54.25;39.50;;;;;3.17;57.46;100132.09;5061703;28;45296;-46
2022/12/13 10:41:34;;;;;;;;;40.75;35.25;;;;;3.34;57.43;100128.72;5061522;27;45435;-46
2022/12/13 10:44:11;;;;;;;;;41.00;36.00;;;;;3.50;57.02;100124.50;5053987;28;46270;-45
2022/12/13 10:46:46;;;;;;;;;39.25;34.00;;;;;3.65;57.34;100121.06;5061461;28;45334;-45
2022/12/13 10:49:23;;;;;;;;;42.50;35.25;;;;;3.79;57.66;100116.81;5061774;28;45303;-47
2022/12/13 10:51:50;;;;;;;;;42.50;35.00;;;;;3.91;57.21;100113.38;5060981;28;45576;-49
2022/12/13 10:54:28;;;;;;;;;36.00;32.75;;;;;4.08;57.04;100113.44;5076999;28;46272;-46
2022/12/13 10:56:59;;;;;;;;;49.50;35.00;;;;;4.26;57.09;100111.72;5061388;28;45276;-48
2022/12/13 10:59:24;;;;;;;;;40.25;33.00;;;;;4.42;57.40;100103.06;5061549;28;45257;-45
2022/12/13 11:01:50;;;;;;;;;43.00;33.75;;;;;4.55;57.31;100097.03;5061496;28;45320;-44
2022/12/13 11:04:26;;;;;;;;;41.00;33.25;;;;;4.77;57.48;100078.78;5061285;28;45342;-44
2022/12/13 11:06:52;;;;;;;;;42.50;33.50;;;;;4.98;57.42;100083.09;5060906;28;45381;-46
2022/12/13 11:09:30;;;;;;;;;37.50;30.25;;;;;5.20;57.53;100088.25;5060462;28;46962;-48
2022/12/13 11:12:10;;;;;;;;;38.50;34.50;;;;;5.43;57.42;100082.97;5061046;28;45468;-45
2022/12/13 11:14:45;;;;;;;;;35.25;30.75;;;;;5.65;57.68;100078.53;5061073;28;46293;-45
2022/12/13 11:17:20;;;;;;;;;30.00;28.50;;;;;5.86;57.56;100072.34;5060896;28;45435;-46
2022/12/13 11:19:49;;;;;;;;;33.00;30.50;;;;;6.11;57.34;100059.22;5061336;28;45311;-46
2022/12/13 11:22:25;;;;;;;;;32.50;28.75;;;;;6.32;57.16;100059.91;5060828;28;45589;-46